aviador You're here:

OERF Decoded Metar

RAFHA in SAUDI ARABIA
Report Time2018-05-25 20:00:00
UTC Time2018-05-25 20:42:17
Flight Rules vfr VFR
Wind070° at 03 kt
W.Decomp.*RWY 11: 2.2 kt HW 2 kt LCW
W.Rank070° ranks 21
Current wind is below 070° avg. (7.8)
Visibility9999 m
Phenomena:N/A
Clouds:N/A
Expected CloudBase > 12,400 ft AGL from Temp-Dew spread
CeilingNone
Temp32°C (ISA +20)
Dew Point01°C (14% RH)
Heat Index29.8°C
AAT29.1°C
QNH1009 hPa
Density Alt3,960 ft
Elevation1,467 ft
Report Wrong Elevation
Raw Report
METAR OERF 252000Z 07003KT CAVOK 32/01 Q1009=

Extra information for OERF:More info

Metar Taf Metar & Taf Last 4 Metars F.Rules Stats Wind Profile Meteogram Temp Stats Airport Information Weather charts Add Link Nearby VenuesMetar ALERT Operation Metar Decoded Social comments